sensor_id;sensor_type;location;lat;lon;timestamp;P1;durP1;ratioP1;P2;durP2;ratioP2
8036;SDS011;4061;51.360;7.340;2023-05-09T00:01:26;14.07;;;8.00;;
8036;SDS011;4061;51.360;7.340;2023-05-09T00:03:55;13.55;;;8.40;;
8036;SDS011;4061;51.360;7.340;2023-05-09T00:06:22;11.10;;;8.07;;
8036;SDS011;4061;51.360;7.340;2023-05-09T00:08:50;15.48;;;7.85;;
8036;SDS011;4061;51.360;7.340;2023-05-09T00:11:18;10.77;;;7.65;;
8036;SDS011;4061;51.360;7.340;2023-05-09T00:13:46;14.00;;;7.97;;
8036;SDS011;4061;51.360;7.340;2023-05-09T00:16:14;14.23;;;9.18;;
8036;SDS011;4061;51.360;7.340;2023-05-09T00:18:42;11.82;;;7.88;;
8036;SDS011;4061;51.360;7.340;2023-05-09T00:21:09;12.65;;;7.72;;
8036;SDS011;4061;51.360;7.340;2023-05-09T00:23:36;13.85;;;7.88;;
8036;SDS011;4061;51.360;7.340;2023-05-09T00:26:03;12.15;;;8.15;;
8036;SDS011;4061;51.360;7.340;2023-05-09T00:28:32;16.77;;;7.75;;
8036;SDS011;4061;51.360;7.340;2023-05-09T00:30:59;15.25;;;7.95;;
8036;SDS011;4061;51.360;7.340;2023-05-09T00:33:26;11.35;;;7.57;;
8036;SDS011;4061;51.360;7.340;2023-05-09T00:35:53;13.20;;;8.02;;
8036;SDS011;4061;51.360;7.340;2023-05-09T00:38:21;10.65;;;8.18;;
8036;SDS011;4061;51.360;7.340;2023-05-09T00:40:48;11.68;;;7.50;;
8036;SDS011;4061;51.360;7.340;2023-05-09T00:43:15;14.07;;;8.45;;
8036;SDS011;4061;51.360;7.340;2023-05-09T00:45:44;10.95;;;7.70;;
8036;SDS011;4061;51.360;7.340;2023-05-09T00:48:11;12.02;;;7.50;;
8036;SDS011;4061;51.360;7.340;2023-05-09T00:50:38;12.35;;;7.70;;
8036;SDS011;4061;51.360;7.340;2023-05-09T00:53:05;11.48;;;7.90;;
8036;SDS011;4061;51.360;7.340;2023-05-09T00:55:32;11.27;;;7.35;;
8036;SDS011;4061;51.360;7.340;2023-05-09T00:57:59;13.57;;;7.88;;
8036;SDS011;4061;51.360;7.340;2023-05-09T01:00:27;11.60;;;8.38;;
8036;SDS011;4061;51.360;7.340;2023-05-09T01:02:55;11.45;;;8.35;;
8036;SDS011;4061;51.360;7.340;2023-05-09T01:05:24;14.35;;;9.00;;
8036;SDS011;4061;51.360;7.340;2023-05-09T01:08:05;14.02;;;8.32;;
8036;SDS011;4061;51.360;7.340;2023-05-09T01:10:34;15.57;;;8.50;;
8036;SDS011;4061;51.360;7.340;2023-05-09T01:13:08;13.52;;;8.48;;
8036;SDS011;4061;51.360;7.340;2023-05-09T01:15:36;19.27;;;8.93;;
8036;SDS011;4061;51.360;7.340;2023-05-09T01:18:08;14.50;;;8.63;;
8036;SDS011;4061;51.360;7.340;2023-05-09T01:20:37;17.48;;;9.55;;
8036;SDS011;4061;51.360;7.340;2023-05-09T01:23:11;15.38;;;9.00;;
8036;SDS011;4061;51.360;7.340;2023-05-09T01:25:43;18.40;;;9.43;;
8036;SDS011;4061;51.360;7.340;2023-05-09T01:28:18;17.70;;;9.68;;
8036;SDS011;4061;51.360;7.340;2023-05-09T01:30:52;20.55;;;9.70;;
8036;SDS011;4061;51.360;7.340;2023-05-09T01:33:20;16.48;;;10.23;;
8036;SDS011;4061;51.360;7.340;2023-05-09T01:35:50;14.70;;;9.23;;
8036;SDS011;4061;51.360;7.340;2023-05-09T01:38:21;20.38;;;9.70;;
8036;SDS011;4061;51.360;7.340;2023-05-09T01:40:50;14.00;;;9.48;;
8036;SDS011;4061;51.360;7.340;2023-05-09T01:43:19;19.08;;;10.23;;
8036;SDS011;4061;51.360;7.340;2023-05-09T01:45:47;20.02;;;10.85;;
8036;SDS011;4061;51.360;7.340;2023-05-09T01:48:16;19.42;;;11.05;;
8036;SDS011;4061;51.360;7.340;2023-05-09T01:50:45;17.27;;;10.30;;
8036;SDS011;4061;51.360;7.340;2023-05-09T01:53:13;27.80;;;10.30;;
8036;SDS011;4061;51.360;7.340;2023-05-09T01:55:43;23.02;;;11.80;;
8036;SDS011;4061;51.360;7.340;2023-05-09T01:58:11;21.92;;;10.95;;
8036;SDS011;4061;51.360;7.340;2023-05-09T02:00:38;17.02;;;10.57;;
8036;SDS011;4061;51.360;7.340;2023-05-09T02:03:06;20.00;;;11.02;;
8036;SDS011;4061;51.360;7.340;2023-05-09T02:05:35;19.65;;;10.88;;
8036;SDS011;4061;51.360;7.340;2023-05-09T02:08:03;16.92;;;10.25;;
8036;SDS011;4061;51.360;7.340;2023-05-09T02:10:30;19.80;;;10.82;;
8036;SDS011;4061;51.360;7.340;2023-05-09T02:12:57;25.45;;;11.55;;
8036;SDS011;4061;51.360;7.340;2023-05-09T02:15:24;22.05;;;11.57;;
8036;SDS011;4061;51.360;7.340;2023-05-09T02:17:52;18.88;;;11.00;;
8036;SDS011;4061;51.360;7.340;2023-05-09T02:20:19;19.92;;;11.23;;
8036;SDS011;4061;51.360;7.340;2023-05-09T02:22:47;20.00;;;11.85;;
8036;SDS011;4061;51.360;7.340;2023-05-09T02:25:15;21.10;;;11.93;;
8036;SDS011;4061;51.360;7.340;2023-05-09T02:27:43;18.35;;;10.73;;
8036;SDS011;4061;51.360;7.340;2023-05-09T02:30:11;18.85;;;11.23;;
8036;SDS011;4061;51.360;7.340;2023-05-09T02:32:40;17.35;;;10.20;;
8036;SDS011;4061;51.360;7.340;2023-05-09T02:35:09;21.65;;;11.65;;
8036;SDS011;4061;51.360;7.340;2023-05-09T02:37:37;23.00;;;11.73;;
8036;SDS011;4061;51.360;7.340;2023-05-09T02:40:07;20.30;;;10.50;;
8036;SDS011;4061;51.360;7.340;2023-05-09T02:42:35;19.88;;;12.20;;
8036;SDS011;4061;51.360;7.340;2023-05-09T02:45:02;22.92;;;12.60;;
8036;SDS011;4061;51.360;7.340;2023-05-09T02:47:29;19.95;;;11.50;;
8036;SDS011;4061;51.360;7.340;2023-05-09T02:49:56;25.52;;;11.50;;
8036;SDS011;4061;51.360;7.340;2023-05-09T02:52:23;19.08;;;12.18;;
8036;SDS011;4061;51.360;7.340;2023-05-09T02:54:50;21.77;;;11.77;;
8036;SDS011;4061;51.360;7.340;2023-05-09T02:57:19;22.67;;;12.98;;
8036;SDS011;4061;51.360;7.340;2023-05-09T02:59:46;22.55;;;13.10;;
8036;SDS011;4061;51.360;7.340;2023-05-09T03:02:13;24.55;;;12.70;;
8036;SDS011;4061;51.360;7.340;2023-05-09T03:04:41;23.98;;;11.75;;
8036;SDS011;4061;51.360;7.340;2023-05-09T03:07:08;24.27;;;12.68;;
8036;SDS011;4061;51.360;7.340;2023-05-09T03:09:35;21.60;;;11.70;;
8036;SDS011;4061;51.360;7.340;2023-05-09T03:12:02;20.65;;;11.50;;
8036;SDS011;4061;51.360;7.340;2023-05-09T03:14:31;28.42;;;14.00;;
8036;SDS011;4061;51.360;7.340;2023-05-09T03:16:58;30.35;;;12.68;;
8036;SDS011;4061;51.360;7.340;2023-05-09T03:19:25;20.40;;;11.80;;
8036;SDS011;4061;51.360;7.340;2023-05-09T03:21:52;29.50;;;13.52;;
8036;SDS011;4061;51.360;7.340;2023-05-09T03:24:20;23.50;;;12.15;;
8036;SDS011;4061;51.360;7.340;2023-05-09T03:26:47;24.25;;;12.90;;
8036;SDS011;4061;51.360;7.340;2023-05-09T03:29:14;24.40;;;12.65;;
8036;SDS011;4061;51.360;7.340;2023-05-09T03:31:43;30.40;;;12.48;;
8036;SDS011;4061;51.360;7.340;2023-05-09T03:34:10;24.10;;;12.23;;
8036;SDS011;4061;51.360;7.340;2023-05-09T03:36:39;26.63;;;12.98;;
8036;SDS011;4061;51.360;7.340;2023-05-09T03:39:07;23.88;;;13.43;;
8036;SDS011;4061;51.360;7.340;2023-05-09T03:41:35;23.75;;;12.15;;
8036;SDS011;4061;51.360;7.340;2023-05-09T03:44:02;24.00;;;13.82;;
8036;SDS011;4061;51.360;7.340;2023-05-09T03:46:29;23.27;;;13.02;;
8036;SDS011;4061;51.360;7.340;2023-05-09T03:48:58;24.63;;;14.48;;
8036;SDS011;4061;51.360;7.340;2023-05-09T03:51:25;26.90;;;13.52;;
8036;SDS011;4061;51.360;7.340;2023-05-09T03:53:52;25.42;;;13.32;;
8036;SDS011;4061;51.360;7.340;2023-05-09T03:56:19;20.58;;;12.15;;
8036;SDS011;4061;51.360;7.340;2023-05-09T03:58:47;24.92;;;13.35;;
8036;SDS011;4061;51.360;7.340;2023-05-09T04:01:14;24.02;;;13.20;;
8036;SDS011;4061;51.360;7.340;2023-05-09T04:03:41;23.83;;;13.68;;
8036;SDS011;4061;51.360;7.340;2023-05-09T04:06:10;21.65;;;12.65;;
8036;SDS011;4061;51.360;7.340;2023-05-09T04:08:37;23.77;;;12.85;;
8036;SDS011;4061;51.360;7.340;2023-05-09T04:11:04;25.08;;;12.88;;
8036;SDS011;4061;51.360;7.340;2023-05-09T04:13:32;25.52;;;12.48;;
8036;SDS011;4061;51.360;7.340;2023-05-09T04:15:59;24.33;;;12.70;;
8036;SDS011;4061;51.360;7.340;2023-05-09T04:18:26;24.20;;;12.73;;
8036;SDS011;4061;51.360;7.340;2023-05-09T04:20:54;24.45;;;12.45;;
8036;SDS011;4061;51.360;7.340;2023-05-09T04:23:23;26.33;;;12.93;;
8036;SDS011;4061;51.360;7.340;2023-05-09T04:25:50;26.17;;;12.77;;
8036;SDS011;4061;51.360;7.340;2023-05-09T04:28:18;25.60;;;11.73;;
8036;SDS011;4061;51.360;7.340;2023-05-09T04:30:45;22.30;;;12.88;;
8036;SDS011;4061;51.360;7.340;2023-05-09T04:33:12;23.33;;;13.48;;
8036;SDS011;4061;51.360;7.340;2023-05-09T04:35:39;25.92;;;13.80;;
8036;SDS011;4061;51.360;7.340;2023-05-09T04:38:06;24.35;;;12.18;;
8036;SDS011;4061;51.360;7.340;2023-05-09T04:40:35;24.15;;;12.85;;
8036;SDS011;4061;51.360;7.340;2023-05-09T04:43:02;23.58;;;12.07;;
8036;SDS011;4061;51.360;7.340;2023-05-09T04:45:30;23.58;;;12.13;;
8036;SDS011;4061;51.360;7.340;2023-05-09T04:47:57;26.42;;;13.05;;
8036;SDS011;4061;51.360;7.340;2023-05-09T04:50:24;22.95;;;12.65;;
8036;SDS011;4061;51.360;7.340;2023-05-09T04:52:51;25.08;;;12.80;;
8036;SDS011;4061;51.360;7.340;2023-05-09T04:55:19;20.70;;;12.30;;
8036;SDS011;4061;51.360;7.340;2023-05-09T04:57:47;24.60;;;13.80;;
8036;SDS011;4061;51.360;7.340;2023-05-09T05:00:14;22.48;;;13.02;;
8036;SDS011;4061;51.360;7.340;2023-05-09T05:02:42;24.38;;;12.55;;
8036;SDS011;4061;51.360;7.340;2023-05-09T05:05:09;29.33;;;12.52;;
8036;SDS011;4061;51.360;7.340;2023-05-09T05:07:37;27.17;;;12.73;;
8036;SDS011;4061;51.360;7.340;2023-05-09T05:10:04;21.48;;;12.05;;
8036;SDS011;4061;51.360;7.340;2023-05-09T05:12:31;23.25;;;12.23;;
8036;SDS011;4061;51.360;7.340;2023-05-09T05:15:00;25.60;;;12.80;;
8036;SDS011;4061;51.360;7.340;2023-05-09T05:17:27;31.70;;;13.38;;
8036;SDS011;4061;51.360;7.340;2023-05-09T05:19:54;29.80;;;12.80;;
8036;SDS011;4061;51.360;7.340;2023-05-09T05:22:21;26.85;;;13.63;;
8036;SDS011;4061;51.360;7.340;2023-05-09T05:24:49;19.50;;;10.85;;
8036;SDS011;4061;51.360;7.340;2023-05-09T05:27:16;24.90;;;12.60;;
8036;SDS011;4061;51.360;7.340;2023-05-09T05:29:43;26.63;;;12.77;;
8036;SDS011;4061;51.360;7.340;2023-05-09T05:32:11;23.23;;;12.05;;
8036;SDS011;4061;51.360;7.340;2023-05-09T05:34:38;22.15;;;12.65;;
8036;SDS011;4061;51.360;7.340;2023-05-09T05:37:06;22.48;;;11.75;;
8036;SDS011;4061;51.360;7.340;2023-05-09T05:39:33;22.83;;;11.88;;
8036;SDS011;4061;51.360;7.340;2023-05-09T05:42:00;25.20;;;12.60;;
8036;SDS011;4061;51.360;7.340;2023-05-09T05:44:27;19.33;;;11.82;;
8036;SDS011;4061;51.360;7.340;2023-05-09T05:46:54;27.17;;;12.05;;
8036;SDS011;4061;51.360;7.340;2023-05-09T05:49:23;21.73;;;11.98;;
8036;SDS011;4061;51.360;7.340;2023-05-09T05:51:50;22.58;;;11.80;;
8036;SDS011;4061;51.360;7.340;2023-05-09T05:54:17;21.02;;;11.98;;
8036;SDS011;4061;51.360;7.340;2023-05-09T05:56:44;22.65;;;11.88;;
8036;SDS011;4061;51.360;7.340;2023-05-09T05:59:11;24.63;;;12.35;;
8036;SDS011;4061;51.360;7.340;2023-05-09T06:01:38;22.05;;;12.48;;
8036;SDS011;4061;51.360;7.340;2023-05-09T06:04:05;17.15;;;10.50;;
8036;SDS011;4061;51.360;7.340;2023-05-09T06:06:34;22.52;;;12.32;;
8036;SDS011;4061;51.360;7.340;2023-05-09T06:09:01;23.00;;;11.02;;
8036;SDS011;4061;51.360;7.340;2023-05-09T06:11:28;15.55;;;9.90;;
8036;SDS011;4061;51.360;7.340;2023-05-09T06:13:55;21.38;;;11.35;;
8036;SDS011;4061;51.360;7.340;2023-05-09T06:16:23;17.55;;;10.35;;
8036;SDS011;4061;51.360;7.340;2023-05-09T06:18:50;23.35;;;11.07;;
8036;SDS011;4061;51.360;7.340;2023-05-09T06:21:17;18.35;;;10.13;;
8036;SDS011;4061;51.360;7.340;2023-05-09T06:23:45;16.38;;;11.00;;
8036;SDS011;4061;51.360;7.340;2023-05-09T06:26:12;16.70;;;10.38;;
8036;SDS011;4061;51.360;7.340;2023-05-09T06:28:40;16.58;;;10.15;;
8036;SDS011;4061;51.360;7.340;2023-05-09T06:31:07;15.13;;;8.95;;
8036;SDS011;4061;51.360;7.340;2023-05-09T06:33:34;17.48;;;10.32;;
8036;SDS011;4061;51.360;7.340;2023-05-09T06:36:01;14.95;;;9.38;;
8036;SDS011;4061;51.360;7.340;2023-05-09T06:38:28;18.05;;;8.90;;
8036;SDS011;4061;51.360;7.340;2023-05-09T06:40:57;16.30;;;9.25;;
8036;SDS011;4061;51.360;7.340;2023-05-09T06:43:24;17.85;;;9.90;;
8036;SDS011;4061;51.360;7.340;2023-05-09T06:45:51;15.60;;;9.73;;
8036;SDS011;4061;51.360;7.340;2023-05-09T06:48:18;16.67;;;9.50;;
8036;SDS011;4061;51.360;7.340;2023-05-09T06:50:47;16.95;;;10.70;;
8036;SDS011;4061;51.360;7.340;2023-05-09T06:53:15;16.30;;;9.52;;
8036;SDS011;4061;51.360;7.340;2023-05-09T06:55:42;16.80;;;9.43;;
8036;SDS011;4061;51.360;7.340;2023-05-09T06:58:11;15.02;;;9.95;;
8036;SDS011;4061;51.360;7.340;2023-05-09T07:00:38;14.55;;;9.55;;
8036;SDS011;4061;51.360;7.340;2023-05-09T07:03:05;14.27;;;8.98;;
8036;SDS011;4061;51.360;7.340;2023-05-09T07:05:32;18.38;;;9.35;;
8036;SDS011;4061;51.360;7.340;2023-05-09T07:07:59;17.98;;;10.38;;
8036;SDS011;4061;51.360;7.340;2023-05-09T07:10:26;17.45;;;9.65;;
8036;SDS011;4061;51.360;7.340;2023-05-09T07:12:53;15.60;;;9.07;;
8036;SDS011;4061;51.360;7.340;2023-05-09T07:15:22;12.02;;;7.95;;
8036;SDS011;4061;51.360;7.340;2023-05-09T07:17:49;15.75;;;9.82;;
8036;SDS011;4061;51.360;7.340;2023-05-09T07:20:17;13.73;;;8.60;;
8036;SDS011;4061;51.360;7.340;2023-05-09T07:22:44;14.00;;;8.18;;
8036;SDS011;4061;51.360;7.340;2023-05-09T07:25:11;15.73;;;8.95;;
8036;SDS011;4061;51.360;7.340;2023-05-09T07:27:38;18.40;;;8.80;;
8036;SDS011;4061;51.360;7.340;2023-05-09T07:30:06;12.77;;;7.50;;
8036;SDS011;4061;51.360;7.340;2023-05-09T07:32:35;11.07;;;7.90;;
8036;SDS011;4061;51.360;7.340;2023-05-09T07:35:02;12.48;;;7.97;;
8036;SDS011;4061;51.360;7.340;2023-05-09T07:37:30;13.55;;;7.78;;
8036;SDS011;4061;51.360;7.340;2023-05-09T07:39:57;13.23;;;7.88;;
8036;SDS011;4061;51.360;7.340;2023-05-09T07:42:24;11.75;;;7.55;;
8036;SDS011;4061;51.360;7.340;2023-05-09T07:44:51;11.88;;;7.78;;
8036;SDS011;4061;51.360;7.340;2023-05-09T07:47:18;10.98;;;7.68;;
8036;SDS011;4061;51.360;7.340;2023-05-09T07:49:47;15.10;;;8.48;;
8036;SDS011;4061;51.360;7.340;2023-05-09T07:52:14;10.25;;;7.22;;
8036;SDS011;4061;51.360;7.340;2023-05-09T07:54:42;13.90;;;7.80;;
8036;SDS011;4061;51.360;7.340;2023-05-09T07:57:09;14.65;;;7.88;;
8036;SDS011;4061;51.360;7.340;2023-05-09T07:59:36;12.02;;;7.32;;
8036;SDS011;4061;51.360;7.340;2023-05-09T08:02:03;12.13;;;8.10;;
8036;SDS011;4061;51.360;7.340;2023-05-09T08:04:30;12.38;;;7.72;;
8036;SDS011;4061;51.360;7.340;2023-05-09T08:06:59;11.15;;;6.90;;
8036;SDS011;4061;51.360;7.340;2023-05-09T08:09:28;11.98;;;7.50;;
8036;SDS011;4061;51.360;7.340;2023-05-09T08:11:55;11.70;;;6.72;;
8036;SDS011;4061;51.360;7.340;2023-05-09T08:14:22;12.63;;;7.80;;
8036;SDS011;4061;51.360;7.340;2023-05-09T08:16:49;9.75;;;7.05;;
8036;SDS011;4061;51.360;7.340;2023-05-09T08:19:16;9.40;;;6.50;;
8036;SDS011;4061;51.360;7.340;2023-05-09T08:21:45;11.30;;;6.80;;
8036;SDS011;4061;51.360;7.340;2023-05-09T08:24:13;10.13;;;6.45;;
8036;SDS011;4061;51.360;7.340;2023-05-09T08:26:40;8.60;;;6.00;;
8036;SDS011;4061;51.360;7.340;2023-05-09T08:29:08;7.57;;;5.90;;
8036;SDS011;4061;51.360;7.340;2023-05-09T08:31:35;9.80;;;8.00;;
8036;SDS011;4061;51.360;7.340;2023-05-09T08:34:02;7.38;;;5.22;;
8036;SDS011;4061;51.360;7.340;2023-05-09T08:36:29;5.78;;;4.65;;
8036;SDS011;4061;51.360;7.340;2023-05-09T08:38:57;5.43;;;4.45;;
8036;SDS011;4061;51.360;7.340;2023-05-09T08:41:26;6.38;;;4.72;;
8036;SDS011;4061;51.360;7.340;2023-05-09T08:43:53;6.15;;;4.55;;
8036;SDS011;4061;51.360;7.340;2023-05-09T08:46:21;5.70;;;4.60;;
8036;SDS011;4061;51.360;7.340;2023-05-09T08:48:50;4.50;;;4.05;;
8036;SDS011;4061;51.360;7.340;2023-05-09T08:51:17;4.97;;;4.05;;
8036;SDS011;4061;51.360;7.340;2023-05-09T08:53:45;6.28;;;4.45;;
8036;SDS011;4061;51.360;7.340;2023-05-09T08:56:12;4.28;;;3.88;;
8036;SDS011;4061;51.360;7.340;2023-05-09T08:58:41;4.18;;;3.75;;
8036;SDS011;4061;51.360;7.340;2023-05-09T09:01:09;11.00;;;4.43;;
8036;SDS011;4061;51.360;7.340;2023-05-09T09:03:38;4.30;;;3.85;;
8036;SDS011;4061;51.360;7.340;2023-05-09T09:06:09;6.43;;;3.63;;
8036;SDS011;4061;51.360;7.340;2023-05-09T09:08:37;3.70;;;3.40;;
8036;SDS011;4061;51.360;7.340;2023-05-09T09:11:04;3.63;;;3.33;;
8036;SDS011;4061;51.360;7.340;2023-05-09T09:13:32;5.22;;;4.00;;
8036;SDS011;4061;51.360;7.340;2023-05-09T09:16:06;5.75;;;4.13;;
8036;SDS011;4061;51.360;7.340;2023-05-09T09:18:35;4.05;;;3.45;;
8036;SDS011;4061;51.360;7.340;2023-05-09T09:21:04;4.72;;;3.42;;
8036;SDS011;4061;51.360;7.340;2023-05-09T09:23:31;3.88;;;3.58;;
8036;SDS011;4061;51.360;7.340;2023-05-09T09:25:59;7.10;;;3.10;;
8036;SDS011;4061;51.360;7.340;2023-05-09T09:28:28;3.85;;;2.50;;
8036;SDS011;4061;51.360;7.340;2023-05-09T09:30:55;3.58;;;3.28;;
8036;SDS011;4061;51.360;7.340;2023-05-09T09:33:25;3.05;;;2.75;;
8036;SDS011;4061;51.360;7.340;2023-05-09T09:35:53;3.97;;;3.05;;
8036;SDS011;4061;51.360;7.340;2023-05-09T09:38:21;2.90;;;2.65;;
8036;SDS011;4061;51.360;7.340;2023-05-09T09:40:48;4.47;;;2.60;;
8036;SDS011;4061;51.360;7.340;2023-05-09T09:43:18;3.63;;;2.90;;
8036;SDS011;4061;51.360;7.340;2023-05-09T09:45:47;3.22;;;2.95;;
8036;SDS011;4061;51.360;7.340;2023-05-09T09:48:15;4.53;;;2.70;;
8036;SDS011;4061;51.360;7.340;2023-05-09T09:50:44;7.15;;;2.97;;
8036;SDS011;4061;51.360;7.340;2023-05-09T09:53:12;2.97;;;2.70;;
8036;SDS011;4061;51.360;7.340;2023-05-09T09:55:47;2.83;;;2.20;;
8036;SDS011;4061;51.360;7.340;2023-05-09T09:58:15;2.60;;;2.40;;
8036;SDS011;4061;51.360;7.340;2023-05-09T10:00:42;2.45;;;2.25;;
8036;SDS011;4061;51.360;7.340;2023-05-09T10:03:13;3.38;;;2.22;;
8036;SDS011;4061;51.360;7.340;2023-05-09T10:05:40;4.15;;;2.42;;
8036;SDS011;4061;51.360;7.340;2023-05-09T10:08:09;2.55;;;1.77;;
8036;SDS011;4061;51.360;7.340;2023-05-09T10:10:36;2.92;;;1.98;;
8036;SDS011;4061;51.360;7.340;2023-05-09T10:13:05;2.22;;;2.05;;
8036;SDS011;4061;51.360;7.340;2023-05-09T10:15:33;2.30;;;2.08;;
8036;SDS011;4061;51.360;7.340;2023-05-09T10:18:01;5.95;;;1.75;;
8036;SDS011;4061;51.360;7.340;2023-05-09T10:20:28;1.65;;;1.50;;
8036;SDS011;4061;51.360;7.340;2023-05-09T10:22:56;2.28;;;1.25;;
8036;SDS011;4061;51.360;7.340;2023-05-09T10:25:27;1.63;;;1.55;;
8036;SDS011;4061;51.360;7.340;2023-05-09T10:27:55;3.45;;;1.73;;
8036;SDS011;4061;51.360;7.340;2023-05-09T10:30:27;1.77;;;1.67;;
8036;SDS011;4061;51.360;7.340;2023-05-09T10:32:56;1.60;;;1.50;;
8036;SDS011;4061;51.360;7.340;2023-05-09T10:35:25;1.83;;;1.73;;
8036;SDS011;4061;51.360;7.340;2023-05-09T10:37:54;2.15;;;1.73;;
8036;SDS011;4061;51.360;7.340;2023-05-09T10:40:22;2.35;;;1.60;;
8036;SDS011;4061;51.360;7.340;2023-05-09T10:42:50;4.78;;;1.42;;
8036;SDS011;4061;51.360;7.340;2023-05-09T10:45:18;2.55;;;1.40;;
8036;SDS011;4061;51.360;7.340;2023-05-09T10:47:47;1.55;;;1.42;;
8036;SDS011;4061;51.360;7.340;2023-05-09T10:50:15;2.53;;;1.40;;
8036;SDS011;4061;51.360;7.340;2023-05-09T10:55:25;2.03;;;1.92;;
8036;SDS011;4061;51.360;7.340;2023-05-09T10:58:07;1.92;;;1.80;;
8036;SDS011;4061;51.360;7.340;2023-05-09T11:00:44;1.92;;;1.75;;
8036;SDS011;4061;51.360;7.340;2023-05-09T11:03:11;1.70;;;1.60;;
8036;SDS011;4061;51.360;7.340;2023-05-09T11:05:40;1.75;;;1.65;;
8036;SDS011;4061;51.360;7.340;2023-05-09T11:08:20;1.83;;;1.73;;
8036;SDS011;4061;51.360;7.340;2023-05-09T11:10:47;2.40;;;2.08;;
8036;SDS011;4061;51.360;7.340;2023-05-09T11:13:19;4.55;;;1.88;;
8036;SDS011;4061;51.360;7.340;2023-05-09T11:16:07;2.40;;;2.00;;
8036;SDS011;4061;51.360;7.340;2023-05-09T11:18:35;4.70;;;2.05;;
8036;SDS011;4061;51.360;7.340;2023-05-09T11:21:15;3.53;;;1.75;;
8036;SDS011;4061;51.360;7.340;2023-05-09T11:23:44;1.98;;;1.88;;
8036;SDS011;4061;51.360;7.340;2023-05-09T11:26:13;2.03;;;1.40;;
8036;SDS011;4061;51.360;7.340;2023-05-09T11:28:42;1.10;;;1.10;;
8036;SDS011;4061;51.360;7.340;2023-05-09T11:31:17;1.13;;;1.13;;
8036;SDS011;4061;51.360;7.340;2023-05-09T11:33:45;1.38;;;1.27;;
8036;SDS011;4061;51.360;7.340;2023-05-09T11:36:16;1.00;;;1.00;;
8036;SDS011;4061;51.360;7.340;2023-05-09T11:38:44;1.75;;;1.15;;
8036;SDS011;4061;51.360;7.340;2023-05-09T11:41:11;2.78;;;1.15;;
8036;SDS011;4061;51.360;7.340;2023-05-09T11:43:39;2.17;;;1.05;;
8036;SDS011;4061;51.360;7.340;2023-05-09T11:46:09;1.02;;;1.02;;
8036;SDS011;4061;51.360;7.340;2023-05-09T11:48:36;1.30;;;1.10;;
8036;SDS011;4061;51.360;7.340;2023-05-09T11:51:04;1.42;;;1.33;;
8036;SDS011;4061;51.360;7.340;2023-05-09T11:53:31;1.27;;;0.93;;
8036;SDS011;4061;51.360;7.340;2023-05-09T11:56:00;2.00;;;1.63;;
8036;SDS011;4061;51.360;7.340;2023-05-09T11:58:28;3.05;;;1.48;;
8036;SDS011;4061;51.360;7.340;2023-05-09T12:00:55;1.48;;;1.20;;
8036;SDS011;4061;51.360;7.340;2023-05-09T12:03:24;3.85;;;1.90;;
8036;SDS011;4061;51.360;7.340;2023-05-09T12:05:53;3.17;;;1.42;;
8036;SDS011;4061;51.360;7.340;2023-05-09T12:08:20;2.20;;;1.58;;
8036;SDS011;4061;51.360;7.340;2023-05-09T12:10:48;3.88;;;1.42;;
8036;SDS011;4061;51.360;7.340;2023-05-09T12:13:15;4.07;;;1.85;;
8036;SDS011;4061;51.360;7.340;2023-05-09T12:15:43;2.03;;;1.92;;
8036;SDS011;4061;51.360;7.340;2023-05-09T12:18:10;3.83;;;1.77;;
8036;SDS011;4061;51.360;7.340;2023-05-09T12:20:42;8.95;;;2.20;;
8036;SDS011;4061;51.360;7.340;2023-05-09T12:23:10;3.47;;;1.98;;
8036;SDS011;4061;51.360;7.340;2023-05-09T12:25:38;3.10;;;1.92;;
8036;SDS011;4061;51.360;7.340;2023-05-09T12:28:05;2.15;;;1.98;;
8036;SDS011;4061;51.360;7.340;2023-05-09T12:30:33;2.08;;;1.98;;
8036;SDS011;4061;51.360;7.340;2023-05-09T12:33:00;5.20;;;2.42;;
8036;SDS011;4061;51.360;7.340;2023-05-09T12:35:28;2.10;;;2.00;;
8036;SDS011;4061;51.360;7.340;2023-05-09T12:37:58;2.33;;;1.52;;
8036;SDS011;4061;51.360;7.340;2023-05-09T12:40:25;2.15;;;2.00;;
8036;SDS011;4061;51.360;7.340;2023-05-09T12:42:53;2.30;;;2.10;;
8036;SDS011;4061;51.360;7.340;2023-05-09T12:45:24;1.77;;;1.67;;
8036;SDS011;4061;51.360;7.340;2023-05-09T12:47:52;3.25;;;1.60;;
8036;SDS011;4061;51.360;7.340;2023-05-09T12:50:20;1.50;;;1.40;;
8036;SDS011;4061;51.360;7.340;2023-05-09T12:52:50;6.57;;;1.98;;
8036;SDS011;4061;51.360;7.340;2023-05-09T12:55:19;1.75;;;1.65;;
8036;SDS011;4061;51.360;7.340;2023-05-09T12:57:55;3.47;;;1.80;;
8036;SDS011;4061;51.360;7.340;2023-05-09T13:00:23;2.10;;;1.95;;
8036;SDS011;4061;51.360;7.340;2023-05-09T13:02:50;1.17;;;1.10;;
8036;SDS011;4061;51.360;7.340;2023-05-09T13:05:18;7.60;;;2.90;;
8036;SDS011;4061;51.360;7.340;2023-05-09T13:07:46;10.50;;;1.50;;
8036;SDS011;4061;51.360;7.340;2023-05-09T13:10:14;2.42;;;1.40;;
8036;SDS011;4061;51.360;7.340;2023-05-09T13:12:43;5.70;;;1.17;;
8036;SDS011;4061;51.360;7.340;2023-05-09T13:15:13;3.22;;;1.23;;
8036;SDS011;4061;51.360;7.340;2023-05-09T13:17:40;1.42;;;1.30;;
8036;SDS011;4061;51.360;7.340;2023-05-09T13:20:07;1.10;;;1.10;;
8036;SDS011;4061;51.360;7.340;2023-05-09T13:22:35;1.50;;;1.40;;
8036;SDS011;4061;51.360;7.340;2023-05-09T13:25:02;1.25;;;1.15;;
8036;SDS011;4061;51.360;7.340;2023-05-09T13:27:30;7.57;;;3.20;;
8036;SDS011;4061;51.360;7.340;2023-05-09T13:29:58;6.10;;;3.15;;
8036;SDS011;4061;51.360;7.340;2023-05-09T13:32:26;1.98;;;1.40;;
8036;SDS011;4061;51.360;7.340;2023-05-09T13:34:53;1.63;;;1.00;;
8036;SDS011;4061;51.360;7.340;2023-05-09T13:37:20;2.08;;;1.25;;
8036;SDS011;4061;51.360;7.340;2023-05-09T13:39:47;2.33;;;1.45;;
8036;SDS011;4061;51.360;7.340;2023-05-09T13:42:14;0.80;;;0.80;;
8036;SDS011;4061;51.360;7.340;2023-05-09T13:44:41;1.85;;;1.50;;
8036;SDS011;4061;51.360;7.340;2023-05-09T13:47:10;7.65;;;1.63;;
8036;SDS011;4061;51.360;7.340;2023-05-09T13:49:37;3.90;;;1.08;;
8036;SDS011;4061;51.360;7.340;2023-05-09T13:52:04;1.17;;;1.08;;
8036;SDS011;4061;51.360;7.340;2023-05-09T13:54:33;1.15;;;1.10;;
8036;SDS011;4061;51.360;7.340;2023-05-09T13:57:00;3.83;;;1.92;;
8036;SDS011;4061;51.360;7.340;2023-05-09T13:59:28;2.05;;;1.77;;
8036;SDS011;4061;51.360;7.340;2023-05-09T14:01:56;1.92;;;1.83;;
8036;SDS011;4061;51.360;7.340;2023-05-09T14:04:25;2.75;;;2.55;;
8036;SDS011;4061;51.360;7.340;2023-05-09T14:06:53;2.28;;;2.00;;
8036;SDS011;4061;51.360;7.340;2023-05-09T14:09:20;2.40;;;2.13;;
8036;SDS011;4061;51.360;7.340;2023-05-09T14:11:47;7.13;;;2.33;;
8036;SDS011;4061;51.360;7.340;2023-05-09T14:14:15;6.32;;;2.75;;
8036;SDS011;4061;51.360;7.340;2023-05-09T14:16:42;2.47;;;2.38;;
8036;SDS011;4061;51.360;7.340;2023-05-09T14:19:09;2.53;;;2.42;;
8036;SDS011;4061;51.360;7.340;2023-05-09T14:21:38;14.52;;;2.60;;
8036;SDS011;4061;51.360;7.340;2023-05-09T14:24:07;7.57;;;2.28;;
8036;SDS011;4061;51.360;7.340;2023-05-09T14:26:34;5.32;;;1.95;;
8036;SDS011;4061;51.360;7.340;2023-05-09T14:29:01;2.03;;;1.70;;
8036;SDS011;4061;51.360;7.340;2023-05-09T14:31:29;2.55;;;1.88;;
8036;SDS011;4061;51.360;7.340;2023-05-09T14:33:56;1.95;;;1.80;;
8036;SDS011;4061;51.360;7.340;2023-05-09T14:36:24;2.05;;;1.67;;
8036;SDS011;4061;51.360;7.340;2023-05-09T14:38:53;3.17;;;2.17;;
8036;SDS011;4061;51.360;7.340;2023-05-09T14:41:20;2.47;;;1.85;;
8036;SDS011;4061;51.360;7.340;2023-05-09T14:43:47;4.22;;;2.40;;
8036;SDS011;4061;51.360;7.340;2023-05-09T14:46:14;2.00;;;1.90;;
8036;SDS011;4061;51.360;7.340;2023-05-09T14:48:41;2.40;;;2.20;;
8036;SDS011;4061;51.360;7.340;2023-05-09T14:51:08;5.50;;;2.70;;
8036;SDS011;4061;51.360;7.340;2023-05-09T14:53:36;9.77;;;2.65;;
8036;SDS011;4061;51.360;7.340;2023-05-09T14:56:07;3.78;;;2.78;;
8036;SDS011;4061;51.360;7.340;2023-05-09T14:58:35;4.57;;;3.08;;
8036;SDS011;4061;51.360;7.340;2023-05-09T15:01:02;5.07;;;3.25;;
8036;SDS011;4061;51.360;7.340;2023-05-09T15:03:29;4.30;;;3.30;;
8036;SDS011;4061;51.360;7.340;2023-05-09T15:05:57;9.50;;;4.32;;
8036;SDS011;4061;51.360;7.340;2023-05-09T15:08:24;3.17;;;2.60;;
8036;SDS011;4061;51.360;7.340;2023-05-09T15:10:52;9.10;;;3.00;;